sensor_id;sensor_type;location;lat;lon;timestamp;temperature;humidity
12481;DHT22;6305;48.398;11.762;2023-12-29T00:00:49;4.60;99.90
12481;DHT22;6305;48.398;11.762;2023-12-29T00:03:16;4.60;99.90
12481;DHT22;6305;48.398;11.762;2023-12-29T00:05:44;4.60;99.90
12481;DHT22;6305;48.398;11.762;2023-12-29T00:08:11;4.50;99.90
12481;DHT22;6305;48.398;11.762;2023-12-29T00:10:38;4.30;99.90
12481;DHT22;6305;48.398;11.762;2023-12-29T00:13:05;4.20;99.90
12481;DHT22;6305;48.398;11.762;2023-12-29T00:15:34;4.10;99.90
12481;DHT22;6305;48.398;11.762;2023-12-29T00:18:01;4.10;99.90
12481;DHT22;6305;48.398;11.762;2023-12-29T00:20:28;4.10;99.90
12481;DHT22;6305;48.398;11.762;2023-12-29T00:22:57;4.30;99.90
12481;DHT22;6305;48.398;11.762;2023-12-29T00:25:25;4.30;99.90
12481;DHT22;6305;48.398;11.762;2023-12-29T00:27:52;4.30;99.90
12481;DHT22;6305;48.398;11.762;2023-12-29T00:30:19;4.30;99.90
12481;DHT22;6305;48.398;11.762;2023-12-29T00:32:46;4.40;99.90
12481;DHT22;6305;48.398;11.762;2023-12-29T00:35:13;4.30;99.90
12481;DHT22;6305;48.398;11.762;2023-12-29T00:37:42;4.30;99.90
12481;DHT22;6305;48.398;11.762;2023-12-29T00:40:11;4.10;99.90
12481;DHT22;6305;48.398;11.762;2023-12-29T00:42:38;4.10;99.90
12481;DHT22;6305;48.398;11.762;2023-12-29T00:45:06;4.00;99.90
12481;DHT22;6305;48.398;11.762;2023-12-29T00:47:34;4.00;99.90
12481;DHT22;6305;48.398;11.762;2023-12-29T00:50:00;4.00;99.90
12481;DHT22;6305;48.398;11.762;2023-12-29T00:52:28;4.10;99.90
12481;DHT22;6305;48.398;11.762;2023-12-29T00:54:55;4.20;99.90
12481;DHT22;6305;48.398;11.762;2023-12-29T00:57:23;4.30;99.90
12481;DHT22;6305;48.398;11.762;2023-12-29T00:59:50;4.50;99.90
12481;DHT22;6305;48.398;11.762;2023-12-29T01:02:17;4.60;99.90
12481;DHT22;6305;48.398;11.762;2023-12-29T01:04:44;4.50;99.90
12481;DHT22;6305;48.398;11.762;2023-12-29T01:07:11;4.40;99.90
12481;DHT22;6305;48.398;11.762;2023-12-29T01:09:38;4.30;99.90
12481;DHT22;6305;48.398;11.762;2023-12-29T01:12:06;4.10;99.90
12481;DHT22;6305;48.398;11.762;2023-12-29T01:14:35;3.80;99.90
12481;DHT22;6305;48.398;11.762;2023-12-29T01:17:02;3.60;99.90
12481;DHT22;6305;48.398;11.762;2023-12-29T01:19:29;3.40;99.90
12481;DHT22;6305;48.398;11.762;2023-12-29T01:21:56;3.30;99.90
12481;DHT22;6305;48.398;11.762;2023-12-29T01:24:23;3.20;99.90
12481;DHT22;6305;48.398;11.762;2023-12-29T01:26:50;3.00;99.90
12481;DHT22;6305;48.398;11.762;2023-12-29T01:29:18;2.90;99.90
12481;DHT22;6305;48.398;11.762;2023-12-29T01:31:46;2.70;99.90
12481;DHT22;6305;48.398;11.762;2023-12-29T01:34:13;2.60;99.90
12481;DHT22;6305;48.398;11.762;2023-12-29T01:36:40;2.60;99.90
12481;DHT22;6305;48.398;11.762;2023-12-29T01:39:07;2.70;99.90
12481;DHT22;6305;48.398;11.762;2023-12-29T01:41:34;2.60;99.90
12481;DHT22;6305;48.398;11.762;2023-12-29T01:44:18;2.60;99.90
12481;DHT22;6305;48.398;11.762;2023-12-29T01:46:48;2.50;99.90
12481;DHT22;6305;48.398;11.762;2023-12-29T01:49:17;2.50;99.90
12481;DHT22;6305;48.398;11.762;2023-12-29T01:51:44;2.40;99.90
12481;DHT22;6305;48.398;11.762;2023-12-29T01:54:13;2.30;99.90
12481;DHT22;6305;48.398;11.762;2023-12-29T01:56:41;2.20;99.90
12481;DHT22;6305;48.398;11.762;2023-12-29T01:59:08;2.20;99.90
12481;DHT22;6305;48.398;11.762;2023-12-29T02:01:36;2.10;99.90
12481;DHT22;6305;48.398;11.762;2023-12-29T02:04:06;2.00;99.90
12481;DHT22;6305;48.398;11.762;2023-12-29T02:06:34;2.10;99.90
12481;DHT22;6305;48.398;11.762;2023-12-29T02:09:02;2.20;99.90
12481;DHT22;6305;48.398;11.762;2023-12-29T02:11:30;2.20;99.90
12481;DHT22;6305;48.398;11.762;2023-12-29T02:13:58;2.20;99.90
12481;DHT22;6305;48.398;11.762;2023-12-29T02:16:33;2.10;99.90
12481;DHT22;6305;48.398;11.762;2023-12-29T02:19:08;2.10;99.90
12481;DHT22;6305;48.398;11.762;2023-12-29T02:21:36;2.00;99.90
12481;DHT22;6305;48.398;11.762;2023-12-29T02:24:03;2.10;99.90
12481;DHT22;6305;48.398;11.762;2023-12-29T02:26:34;2.00;99.90
12481;DHT22;6305;48.398;11.762;2023-12-29T02:29:04;2.00;99.90
12481;DHT22;6305;48.398;11.762;2023-12-29T02:31:38;2.10;99.90
12481;DHT22;6305;48.398;11.762;2023-12-29T02:34:07;2.10;99.90
12481;DHT22;6305;48.398;11.762;2023-12-29T02:36:37;2.00;99.90
12481;DHT22;6305;48.398;11.762;2023-12-29T02:39:09;1.90;99.90
12481;DHT22;6305;48.398;11.762;2023-12-29T02:41:38;1.70;99.90
12481;DHT22;6305;48.398;11.762;2023-12-29T02:44:06;1.60;99.90
12481;DHT22;6305;48.398;11.762;2023-12-29T02:46:33;1.50;99.90
12481;DHT22;6305;48.398;11.762;2023-12-29T02:49:00;1.50;99.90
12481;DHT22;6305;48.398;11.762;2023-12-29T02:51:27;1.50;99.90
12481;DHT22;6305;48.398;11.762;2023-12-29T02:53:54;1.60;99.90
12481;DHT22;6305;48.398;11.762;2023-12-29T02:56:21;1.80;99.90
12481;DHT22;6305;48.398;11.762;2023-12-29T02:58:50;1.90;99.90
12481;DHT22;6305;48.398;11.762;2023-12-29T03:01:17;2.10;99.90
12481;DHT22;6305;48.398;11.762;2023-12-29T03:03:44;2.20;99.90
12481;DHT22;6305;48.398;11.762;2023-12-29T03:06:12;2.40;99.90
12481;DHT22;6305;48.398;11.762;2023-12-29T03:08:39;2.50;99.90
12481;DHT22;6305;48.398;11.762;2023-12-29T03:11:06;2.50;99.90
12481;DHT22;6305;48.398;11.762;2023-12-29T03:13:33;2.60;99.90
12481;DHT22;6305;48.398;11.762;2023-12-29T03:16:01;2.60;99.90
12481;DHT22;6305;48.398;11.762;2023-12-29T03:18:28;2.70;99.90
12481;DHT22;6305;48.398;11.762;2023-12-29T03:20:56;2.70;99.90
12481;DHT22;6305;48.398;11.762;2023-12-29T03:23:23;2.60;99.90
12481;DHT22;6305;48.398;11.762;2023-12-29T03:25:49;2.50;99.90
12481;DHT22;6305;48.398;11.762;2023-12-29T03:28:17;2.30;99.90
12481;DHT22;6305;48.398;11.762;2023-12-29T03:30:44;2.10;99.90
12481;DHT22;6305;48.398;11.762;2023-12-29T03:33:12;1.90;99.90
12481;DHT22;6305;48.398;11.762;2023-12-29T03:35:39;1.80;99.90
12481;DHT22;6305;48.398;11.762;2023-12-29T03:38:07;1.80;99.90
12481;DHT22;6305;48.398;11.762;2023-12-29T03:40:34;1.70;99.90
12481;DHT22;6305;48.398;11.762;2023-12-29T03:43:00;1.70;99.90
12481;DHT22;6305;48.398;11.762;2023-12-29T03:45:28;1.50;99.90
12481;DHT22;6305;48.398;11.762;2023-12-29T03:47:55;1.40;99.90
12481;DHT22;6305;48.398;11.762;2023-12-29T03:50:24;1.40;99.90
12481;DHT22;6305;48.398;11.762;2023-12-29T03:52:51;1.40;99.90
12481;DHT22;6305;48.398;11.762;2023-12-29T03:55:17;1.40;99.90
12481;DHT22;6305;48.398;11.762;2023-12-29T03:57:44;1.50;99.90
12481;DHT22;6305;48.398;11.762;2023-12-29T04:00:12;1.70;99.90
12481;DHT22;6305;48.398;11.762;2023-12-29T04:02:40;1.90;99.90
12481;DHT22;6305;48.398;11.762;2023-12-29T04:05:08;2.10;99.90
12481;DHT22;6305;48.398;11.762;2023-12-29T04:07:39;2.30;99.90
12481;DHT22;6305;48.398;11.762;2023-12-29T04:10:07;2.50;99.90
12481;DHT22;6305;48.398;11.762;2023-12-29T04:12:34;2.60;99.90
12481;DHT22;6305;48.398;11.762;2023-12-29T04:15:02;2.60;99.90
12481;DHT22;6305;48.398;11.762;2023-12-29T04:17:30;2.70;99.90
12481;DHT22;6305;48.398;11.762;2023-12-29T04:19:57;2.80;99.90
12481;DHT22;6305;48.398;11.762;2023-12-29T04:22:24;2.90;99.90
12481;DHT22;6305;48.398;11.762;2023-12-29T04:24:52;3.00;99.90
12481;DHT22;6305;48.398;11.762;2023-12-29T04:27:19;3.00;99.90
12481;DHT22;6305;48.398;11.762;2023-12-29T04:29:46;3.10;99.90
12481;DHT22;6305;48.398;11.762;2023-12-29T04:32:14;3.10;99.90
12481;DHT22;6305;48.398;11.762;2023-12-29T04:34:43;3.20;99.90
12481;DHT22;6305;48.398;11.762;2023-12-29T04:37:10;3.20;99.90
12481;DHT22;6305;48.398;11.762;2023-12-29T04:39:37;3.20;99.90
12481;DHT22;6305;48.398;11.762;2023-12-29T04:42:06;3.20;99.90
12481;DHT22;6305;48.398;11.762;2023-12-29T04:44:33;3.30;99.90
12481;DHT22;6305;48.398;11.762;2023-12-29T04:47:00;3.30;99.90
12481;DHT22;6305;48.398;11.762;2023-12-29T04:49:27;3.30;99.90
12481;DHT22;6305;48.398;11.762;2023-12-29T04:51:54;3.40;99.90
12481;DHT22;6305;48.398;11.762;2023-12-29T04:54:21;3.50;99.90
12481;DHT22;6305;48.398;11.762;2023-12-29T04:56:48;3.50;99.90
12481;DHT22;6305;48.398;11.762;2023-12-29T04:59:16;3.60;99.90
12481;DHT22;6305;48.398;11.762;2023-12-29T05:01:43;3.60;99.90
12481;DHT22;6305;48.398;11.762;2023-12-29T05:04:10;3.70;99.90
12481;DHT22;6305;48.398;11.762;2023-12-29T05:06:37;3.70;99.90
12481;DHT22;6305;48.398;11.762;2023-12-29T05:09:04;3.70;99.90
12481;DHT22;6305;48.398;11.762;2023-12-29T05:11:31;3.70;99.90
12481;DHT22;6305;48.398;11.762;2023-12-29T05:14:01;3.70;99.90
12481;DHT22;6305;48.398;11.762;2023-12-29T05:16:29;3.60;99.90
12481;DHT22;6305;48.398;11.762;2023-12-29T05:18:56;3.40;99.90
12481;DHT22;6305;48.398;11.762;2023-12-29T05:21:23;3.30;99.90
12481;DHT22;6305;48.398;11.762;2023-12-29T05:23:52;3.30;99.90
12481;DHT22;6305;48.398;11.762;2023-12-29T05:26:19;3.30;99.90
12481;DHT22;6305;48.398;11.762;2023-12-29T05:28:46;3.30;99.90
12481;DHT22;6305;48.398;11.762;2023-12-29T05:31:13;3.10;99.90
12481;DHT22;6305;48.398;11.762;2023-12-29T05:33:43;3.10;99.90
12481;DHT22;6305;48.398;11.762;2023-12-29T05:36:11;3.10;99.90
12481;DHT22;6305;48.398;11.762;2023-12-29T05:38:38;3.00;99.90
12481;DHT22;6305;48.398;11.762;2023-12-29T05:41:07;2.90;99.90
12481;DHT22;6305;48.398;11.762;2023-12-29T05:43:34;2.90;99.90
12481;DHT22;6305;48.398;11.762;2023-12-29T05:46:00;3.00;99.90
12481;DHT22;6305;48.398;11.762;2023-12-29T05:48:27;3.20;99.90
12481;DHT22;6305;48.398;11.762;2023-12-29T05:50:56;3.30;99.90
12481;DHT22;6305;48.398;11.762;2023-12-29T05:53:25;3.40;99.90
12481;DHT22;6305;48.398;11.762;2023-12-29T05:55:52;3.50;99.90
12481;DHT22;6305;48.398;11.762;2023-12-29T05:58:19;3.60;99.90
12481;DHT22;6305;48.398;11.762;2023-12-29T06:00:46;3.60;99.90
12481;DHT22;6305;48.398;11.762;2023-12-29T06:03:13;3.70;99.90
12481;DHT22;6305;48.398;11.762;2023-12-29T06:05:40;3.80;99.90
12481;DHT22;6305;48.398;11.762;2023-12-29T06:08:08;3.90;99.90
12481;DHT22;6305;48.398;11.762;2023-12-29T06:10:35;3.90;99.90
12481;DHT22;6305;48.398;11.762;2023-12-29T06:13:03;4.00;99.90
12481;DHT22;6305;48.398;11.762;2023-12-29T06:15:30;4.00;99.90
12481;DHT22;6305;48.398;11.762;2023-12-29T06:17:57;4.00;99.90
12481;DHT22;6305;48.398;11.762;2023-12-29T06:20:25;4.10;99.90
12481;DHT22;6305;48.398;11.762;2023-12-29T06:22:52;4.10;99.90
12481;DHT22;6305;48.398;11.762;2023-12-29T06:25:20;4.10;99.90
12481;DHT22;6305;48.398;11.762;2023-12-29T06:27:47;4.10;99.90
12481;DHT22;6305;48.398;11.762;2023-12-29T06:30:15;4.10;99.90
12481;DHT22;6305;48.398;11.762;2023-12-29T06:32:42;4.10;99.90
12481;DHT22;6305;48.398;11.762;2023-12-29T06:35:09;4.10;99.90
12481;DHT22;6305;48.398;11.762;2023-12-29T06:37:37;4.10;99.90
12481;DHT22;6305;48.398;11.762;2023-12-29T06:40:05;4.20;99.90
12481;DHT22;6305;48.398;11.762;2023-12-29T06:42:34;4.20;99.90
12481;DHT22;6305;48.398;11.762;2023-12-29T06:45:01;4.20;99.90
12481;DHT22;6305;48.398;11.762;2023-12-29T06:47:28;4.20;99.90
12481;DHT22;6305;48.398;11.762;2023-12-29T06:49:55;4.30;99.90
12481;DHT22;6305;48.398;11.762;2023-12-29T06:52:22;4.40;99.90
12481;DHT22;6305;48.398;11.762;2023-12-29T06:54:49;4.60;99.90
12481;DHT22;6305;48.398;11.762;2023-12-29T06:57:16;4.80;99.90
12481;DHT22;6305;48.398;11.762;2023-12-29T06:59:45;5.10;99.90
12481;DHT22;6305;48.398;11.762;2023-12-29T07:02:12;5.30;99.90
12481;DHT22;6305;48.398;11.762;2023-12-29T07:04:41;5.50;99.90
12481;DHT22;6305;48.398;11.762;2023-12-29T07:07:08;5.70;99.90
12481;DHT22;6305;48.398;11.762;2023-12-29T07:09:37;6.00;99.90
12481;DHT22;6305;48.398;11.762;2023-12-29T07:12:05;6.10;99.90
12481;DHT22;6305;48.398;11.762;2023-12-29T07:14:32;6.30;99.90
12481;DHT22;6305;48.398;11.762;2023-12-29T07:17:00;6.50;99.90
12481;DHT22;6305;48.398;11.762;2023-12-29T07:19:27;6.60;99.90
12481;DHT22;6305;48.398;11.762;2023-12-29T07:22:05;6.60;99.90
12481;DHT22;6305;48.398;11.762;2023-12-29T07:24:33;6.70;99.90
12481;DHT22;6305;48.398;11.762;2023-12-29T07:27:01;6.80;99.90
12481;DHT22;6305;48.398;11.762;2023-12-29T07:29:28;6.90;99.90
12481;DHT22;6305;48.398;11.762;2023-12-29T07:31:55;7.10;99.90
12481;DHT22;6305;48.398;11.762;2023-12-29T07:34:23;7.20;99.90
12481;DHT22;6305;48.398;11.762;2023-12-29T07:36:50;7.30;99.90
12481;DHT22;6305;48.398;11.762;2023-12-29T07:39:18;7.30;99.90
12481;DHT22;6305;48.398;11.762;2023-12-29T07:41:45;7.40;99.90
12481;DHT22;6305;48.398;11.762;2023-12-29T07:44:14;7.40;99.90
12481;DHT22;6305;48.398;11.762;2023-12-29T07:46:41;7.50;99.90
12481;DHT22;6305;48.398;11.762;2023-12-29T07:49:08;7.50;99.90
12481;DHT22;6305;48.398;11.762;2023-12-29T07:51:40;7.50;99.90
12481;DHT22;6305;48.398;11.762;2023-12-29T07:54:07;7.50;99.90
12481;DHT22;6305;48.398;11.762;2023-12-29T07:56:34;7.60;99.90
12481;DHT22;6305;48.398;11.762;2023-12-29T07:59:02;7.50;99.90
12481;DHT22;6305;48.398;11.762;2023-12-29T08:01:29;7.40;99.90
12481;DHT22;6305;48.398;11.762;2023-12-29T08:03:56;7.30;99.90
12481;DHT22;6305;48.398;11.762;2023-12-29T08:06:23;7.30;99.90
12481;DHT22;6305;48.398;11.762;2023-12-29T08:08:52;7.40;99.90
12481;DHT22;6305;48.398;11.762;2023-12-29T08:11:19;7.50;99.90
12481;DHT22;6305;48.398;11.762;2023-12-29T08:13:47;7.60;99.90
12481;DHT22;6305;48.398;11.762;2023-12-29T08:16:15;7.70;99.90
12481;DHT22;6305;48.398;11.762;2023-12-29T08:18:43;7.70;99.90
12481;DHT22;6305;48.398;11.762;2023-12-29T08:21:19;7.70;99.90
12481;DHT22;6305;48.398;11.762;2023-12-29T08:23:47;7.80;99.90
12481;DHT22;6305;48.398;11.762;2023-12-29T08:26:15;8.00;99.90
12481;DHT22;6305;48.398;11.762;2023-12-29T08:28:42;8.20;99.90
12481;DHT22;6305;48.398;11.762;2023-12-29T08:31:11;8.40;99.90
12481;DHT22;6305;48.398;11.762;2023-12-29T08:33:37;8.60;99.90
12481;DHT22;6305;48.398;11.762;2023-12-29T08:36:05;8.80;99.90
12481;DHT22;6305;48.398;11.762;2023-12-29T08:38:33;9.00;99.90
12481;DHT22;6305;48.398;11.762;2023-12-29T08:41:00;9.00;99.90
12481;DHT22;6305;48.398;11.762;2023-12-29T08:43:28;9.10;99.90
12481;DHT22;6305;48.398;11.762;2023-12-29T08:45:56;9.40;99.90
12481;DHT22;6305;48.398;11.762;2023-12-29T08:48:23;9.90;99.90
12481;DHT22;6305;48.398;11.762;2023-12-29T08:50:50;10.00;99.90
12481;DHT22;6305;48.398;11.762;2023-12-29T08:53:17;10.10;99.90
12481;DHT22;6305;48.398;11.762;2023-12-29T08:55:45;10.50;99.90
12481;DHT22;6305;48.398;11.762;2023-12-29T08:58:12;11.20;99.90
12481;DHT22;6305;48.398;11.762;2023-12-29T09:00:40;11.90;99.90
12481;DHT22;6305;48.398;11.762;2023-12-29T09:03:07;12.60;99.90
12481;DHT22;6305;48.398;11.762;2023-12-29T09:05:34;13.10;99.90
12481;DHT22;6305;48.398;11.762;2023-12-29T09:08:01;13.80;99.90
12481;DHT22;6305;48.398;11.762;2023-12-29T09:10:28;14.60;99.90
12481;DHT22;6305;48.398;11.762;2023-12-29T09:12:55;15.30;99.90
12481;DHT22;6305;48.398;11.762;2023-12-29T09:15:22;15.70;99.50
12481;DHT22;6305;48.398;11.762;2023-12-29T09:17:51;15.50;97.70
12481;DHT22;6305;48.398;11.762;2023-12-29T09:20:18;14.90;97.10
12481;DHT22;6305;48.398;11.762;2023-12-29T09:22:45;14.10;99.90
12481;DHT22;6305;48.398;11.762;2023-12-29T09:25:12;13.90;99.90
12481;DHT22;6305;48.398;11.762;2023-12-29T09:27:39;14.20;99.90
12481;DHT22;6305;48.398;11.762;2023-12-29T09:30:07;13.90;99.90
12481;DHT22;6305;48.398;11.762;2023-12-29T09:32:34;13.20;99.90
12481;DHT22;6305;48.398;11.762;2023-12-29T09:35:03;12.60;99.90
12481;DHT22;6305;48.398;11.762;2023-12-29T09:37:30;12.20;99.90
12481;DHT22;6305;48.398;11.762;2023-12-29T09:39:57;12.00;99.90
12481;DHT22;6305;48.398;11.762;2023-12-29T09:42:24;11.80;99.90
12481;DHT22;6305;48.398;11.762;2023-12-29T09:44:55;11.80;99.90
12481;DHT22;6305;48.398;11.762;2023-12-29T09:47:24;11.60;99.90
12481;DHT22;6305;48.398;11.762;2023-12-29T09:49:52;11.60;99.90
12481;DHT22;6305;48.398;11.762;2023-12-29T09:52:21;11.40;99.90
12481;DHT22;6305;48.398;11.762;2023-12-29T09:54:50;11.30;99.90
12481;DHT22;6305;48.398;11.762;2023-12-29T09:57:18;11.50;99.90
12481;DHT22;6305;48.398;11.762;2023-12-29T09:59:45;11.90;99.90
12481;DHT22;6305;48.398;11.762;2023-12-29T10:02:17;12.20;99.90
12481;DHT22;6305;48.398;11.762;2023-12-29T10:04:44;12.70;99.90
12481;DHT22;6305;48.398;11.762;2023-12-29T10:07:17;12.90;99.90
12481;DHT22;6305;48.398;11.762;2023-12-29T10:09:48;12.90;99.90
12481;DHT22;6305;48.398;11.762;2023-12-29T10:12:17;13.10;99.90
12481;DHT22;6305;48.398;11.762;2023-12-29T10:14:51;13.20;99.90
12481;DHT22;6305;48.398;11.762;2023-12-29T10:17:41;13.20;99.90
12481;DHT22;6305;48.398;11.762;2023-12-29T10:20:12;13.30;99.90
12481;DHT22;6305;48.398;11.762;2023-12-29T10:22:48;13.10;99.90
12481;DHT22;6305;48.398;11.762;2023-12-29T10:25:19;12.90;99.90
12481;DHT22;6305;48.398;11.762;2023-12-29T10:27:48;12.80;99.90
12481;DHT22;6305;48.398;11.762;2023-12-29T10:30:16;12.70;99.90
12481;DHT22;6305;48.398;11.762;2023-12-29T10:32:43;12.60;99.90
12481;DHT22;6305;48.398;11.762;2023-12-29T10:35:15;12.80;99.90
12481;DHT22;6305;48.398;11.762;2023-12-29T10:37:42;13.40;99.90
12481;DHT22;6305;48.398;11.762;2023-12-29T10:40:17;14.20;99.90
12481;DHT22;6305;48.398;11.762;2023-12-29T10:42:53;14.40;99.90
12481;DHT22;6305;48.398;11.762;2023-12-29T10:45:20;15.00;99.90
12481;DHT22;6305;48.398;11.762;2023-12-29T10:47:48;15.30;99.70
12481;DHT22;6305;48.398;11.762;2023-12-29T10:50:15;14.90;99.90
12481;DHT22;6305;48.398;11.762;2023-12-29T10:52:42;14.80;99.90
12481;DHT22;6305;48.398;11.762;2023-12-29T10:55:10;14.70;99.90
12481;DHT22;6305;48.398;11.762;2023-12-29T10:57:38;15.10;99.90
12481;DHT22;6305;48.398;11.762;2023-12-29T11:00:08;15.90;99.60
12481;DHT22;6305;48.398;11.762;2023-12-29T11:02:38;16.90;95.50
12481;DHT22;6305;48.398;11.762;2023-12-29T11:05:06;17.10;91.50
12481;DHT22;6305;48.398;11.762;2023-12-29T11:07:34;16.40;92.60
12481;DHT22;6305;48.398;11.762;2023-12-29T11:10:03;15.70;94.00
12481;DHT22;6305;48.398;11.762;2023-12-29T11:12:32;14.70;98.30
12481;DHT22;6305;48.398;11.762;2023-12-29T11:15:01;14.50;99.90
12481;DHT22;6305;48.398;11.762;2023-12-29T11:17:31;14.00;99.90
12481;DHT22;6305;48.398;11.762;2023-12-29T11:19:59;13.50;99.90
12481;DHT22;6305;48.398;11.762;2023-12-29T11:22:28;13.00;99.90
12481;DHT22;6305;48.398;11.762;2023-12-29T11:24:56;12.70;99.90
12481;DHT22;6305;48.398;11.762;2023-12-29T11:27:27;12.50;99.90
12481;DHT22;6305;48.398;11.762;2023-12-29T11:29:56;12.60;99.90
12481;DHT22;6305;48.398;11.762;2023-12-29T11:32:29;12.80;99.90
12481;DHT22;6305;48.398;11.762;2023-12-29T11:35:06;12.90;99.90
12481;DHT22;6305;48.398;11.762;2023-12-29T11:37:49;12.90;99.90
12481;DHT22;6305;48.398;11.762;2023-12-29T11:40:21;13.00;99.90
12481;DHT22;6305;48.398;11.762;2023-12-29T11:42:54;13.00;99.90
12481;DHT22;6305;48.398;11.762;2023-12-29T11:45:25;13.40;99.90
12481;DHT22;6305;48.398;11.762;2023-12-29T11:47:53;13.70;99.90
12481;DHT22;6305;48.398;11.762;2023-12-29T11:50:29;13.90;99.90
12481;DHT22;6305;48.398;11.762;2023-12-29T11:52:57;14.10;99.90
12481;DHT22;6305;48.398;11.762;2023-12-29T11:55:29;14.20;99.90
12481;DHT22;6305;48.398;11.762;2023-12-29T11:57:57;14.20;99.90
12481;DHT22;6305;48.398;11.762;2023-12-29T12:00:42;14.10;99.90
12481;DHT22;6305;48.398;11.762;2023-12-29T12:03:17;14.30;99.90
12481;DHT22;6305;48.398;11.762;2023-12-29T12:05:48;14.00;99.90
12481;DHT22;6305;48.398;11.762;2023-12-29T12:08:36;14.00;99.90
12481;DHT22;6305;48.398;11.762;2023-12-29T12:11:41;13.90;99.90
12481;DHT22;6305;48.398;11.762;2023-12-29T12:14:09;13.90;99.90
12481;DHT22;6305;48.398;11.762;2023-12-29T12:16:50;14.00;99.90
12481;DHT22;6305;48.398;11.762;2023-12-29T12:19:20;14.00;99.90
12481;DHT22;6305;48.398;11.762;2023-12-29T12:21:53;14.00;99.90
12481;DHT22;6305;48.398;11.762;2023-12-29T12:24:21;14.00;99.90
12481;DHT22;6305;48.398;11.762;2023-12-29T12:26:48;14.00;99.90
12481;DHT22;6305;48.398;11.762;2023-12-29T12:29:17;14.30;99.90
12481;DHT22;6305;48.398;11.762;2023-12-29T12:31:55;14.40;99.90
12481;DHT22;6305;48.398;11.762;2023-12-29T12:34:22;14.40;99.90
12481;DHT22;6305;48.398;11.762;2023-12-29T12:36:52;14.30;99.90
12481;DHT22;6305;48.398;11.762;2023-12-29T12:39:22;14.10;99.90
12481;DHT22;6305;48.398;11.762;2023-12-29T12:41:49;13.90;99.90
12481;DHT22;6305;48.398;11.762;2023-12-29T12:44:16;13.80;99.90
12481;DHT22;6305;48.398;11.762;2023-12-29T12:46:50;13.50;99.90
12481;DHT22;6305;48.398;11.762;2023-12-29T12:49:18;13.30;99.90
12481;DHT22;6305;48.398;11.762;2023-12-29T12:51:46;13.10;99.90
12481;DHT22;6305;48.398;11.762;2023-12-29T12:54:17;12.80;99.90
12481;DHT22;6305;48.398;11.762;2023-12-29T12:56:45;12.50;99.90
12481;DHT22;6305;48.398;11.762;2023-12-29T12:59:13;12.30;99.90
12481;DHT22;6305;48.398;11.762;2023-12-29T13:01:40;12.10;99.90
12481;DHT22;6305;48.398;11.762;2023-12-29T13:04:08;12.00;99.90
12481;DHT22;6305;48.398;11.762;2023-12-29T13:06:39;11.90;99.90
12481;DHT22;6305;48.398;11.762;2023-12-29T13:09:07;11.90;99.90
12481;DHT22;6305;48.398;11.762;2023-12-29T13:11:38;11.80;99.90
12481;DHT22;6305;48.398;11.762;2023-12-29T13:14:06;11.90;99.90
12481;DHT22;6305;48.398;11.762;2023-12-29T13:16:34;11.80;99.90
12481;DHT22;6305;48.398;11.762;2023-12-29T13:19:18;11.80;99.90
12481;DHT22;6305;48.398;11.762;2023-12-29T13:21:47;11.80;99.90
12481;DHT22;6305;48.398;11.762;2023-12-29T13:24:14;11.70;99.90
12481;DHT22;6305;48.398;11.762;2023-12-29T13:26:45;11.70;99.90
12481;DHT22;6305;48.398;11.762;2023-12-29T13:29:19;11.60;99.90
12481;DHT22;6305;48.398;11.762;2023-12-29T13:31:47;11.60;99.90
12481;DHT22;6305;48.398;11.762;2023-12-29T13:34:17;11.50;99.90
12481;DHT22;6305;48.398;11.762;2023-12-29T13:36:51;11.60;99.90
12481;DHT22;6305;48.398;11.762;2023-12-29T13:39:26;11.50;99.90
12481;DHT22;6305;48.398;11.762;2023-12-29T13:41:56;11.40;99.90
12481;DHT22;6305;48.398;11.762;2023-12-29T13:44:25;11.40;99.90
12481;DHT22;6305;48.398;11.762;2023-12-29T13:46:54;11.30;99.90
12481;DHT22;6305;48.398;11.762;2023-12-29T13:49:21;11.20;99.90
12481;DHT22;6305;48.398;11.762;2023-12-29T13:51:48;11.20;99.90
12481;DHT22;6305;48.398;11.762;2023-12-29T13:54:16;11.10;99.90
12481;DHT22;6305;48.398;11.762;2023-12-29T13:56:52;11.10;99.90
12481;DHT22;6305;48.398;11.762;2023-12-29T13:59:30;11.10;99.90
12481;DHT22;6305;48.398;11.762;2023-12-29T14:01:59;11.00;99.90
12481;DHT22;6305;48.398;11.762;2023-12-29T14:04:29;11.00;99.90
12481;DHT22;6305;48.398;11.762;2023-12-29T14:07:01;10.90;99.90
12481;DHT22;6305;48.398;11.762;2023-12-29T14:09:29;10.80;99.90
12481;DHT22;6305;48.398;11.762;2023-12-29T14:11:56;10.70;99.90
12481;DHT22;6305;48.398;11.762;2023-12-29T14:14:24;10.60;99.90
12481;DHT22;6305;48.398;11.762;2023-12-29T14:16:53;10.50;99.90
12481;DHT22;6305;48.398;11.762;2023-12-29T14:19:20;10.40;99.90
12481;DHT22;6305;48.398;11.762;2023-12-29T14:21:50;10.40;99.90
12481;DHT22;6305;48.398;11.762;2023-12-29T14:24:19;10.30;99.90
12481;DHT22;6305;48.398;11.762;2023-12-29T14:26:54;10.20;99.90
12481;DHT22;6305;48.398;11.762;2023-12-29T14:29:22;10.10;99.90
12481;DHT22;6305;48.398;11.762;2023-12-29T14:31:50;10.10;99.90
12481;DHT22;6305;48.398;11.762;2023-12-29T14:34:19;10.10;99.90
12481;DHT22;6305;48.398;11.762;2023-12-29T14:36:46;10.00;99.90
12481;DHT22;6305;48.398;11.762;2023-12-29T14:39:13;10.00;99.90
12481;DHT22;6305;48.398;11.762;2023-12-29T14:41:41;9.90;99.90
12481;DHT22;6305;48.398;11.762;2023-12-29T14:44:08;9.90;99.90
12481;DHT22;6305;48.398;11.762;2023-12-29T14:46:37;9.80;99.90
12481;DHT22;6305;48.398;11.762;2023-12-29T14:49:04;9.70;99.90
12481;DHT22;6305;48.398;11.762;2023-12-29T14:51:33;9.60;99.90
12481;DHT22;6305;48.398;11.762;2023-12-29T14:53:59;9.50;99.90
12481;DHT22;6305;48.398;11.762;2023-12-29T14:56:28;9.50;99.90
12481;DHT22;6305;48.398;11.762;2023-12-29T14:58:55;9.40;99.90
12481;DHT22;6305;48.398;11.762;2023-12-29T15:01:22;9.30;99.90
12481;DHT22;6305;48.398;11.762;2023-12-29T15:03:52;9.20;99.90
12481;DHT22;6305;48.398;11.762;2023-12-29T15:06:19;9.10;99.90
12481;DHT22;6305;48.398;11.762;2023-12-29T15:08:47;9.10;99.90
12481;DHT22;6305;48.398;11.762;2023-12-29T15:11:14;9.00;99.90
12481;DHT22;6305;48.398;11.762;2023-12-29T15:13:41;8.90;99.90
12481;DHT22;6305;48.398;11.762;2023-12-29T15:16:08;8.90;99.90
12481;DHT22;6305;48.398;11.762;2023-12-29T15:18:35;8.80;99.90
12481;DHT22;6305;48.398;11.762;2023-12-29T15:21:03;8.70;99.90
12481;DHT22;6305;48.398;11.762;2023-12-29T15:23:31;8.60;99.90
12481;DHT22;6305;48.398;11.762;2023-12-29T15:25:59;8.60;99.90
12481;DHT22;6305;48.398;11.762;2023-12-29T15:28:27;8.50;99.90
12481;DHT22;6305;48.398;11.762;2023-12-29T15:30:54;8.50;99.90
12481;DHT22;6305;48.398;11.762;2023-12-29T15:33:21;8.40;99.90
12481;DHT22;6305;48.398;11.762;2023-12-29T15:35:48;8.30;99.90
12481;DHT22;6305;48.398;11.762;2023-12-29T15:38:15;8.30;99.90
12481;DHT22;6305;48.398;11.762;2023-12-29T15:40:42;8.10;99.90
12481;DHT22;6305;48.398;11.762;2023-12-29T15:43:10;8.10;99.90
12481;DHT22;6305;48.398;11.762;2023-12-29T15:45:37;8.00;99.90
12481;DHT22;6305;48.398;11.762;2023-12-29T15:48:05;8.00;99.90